createdAt,value
2018-10-12T00:00:50.964Z,20.57
2018-10-12T00:03:22.447Z,22.40
2018-10-12T00:05:53.887Z,22.27
2018-10-12T00:08:25.178Z,22.60
2018-10-12T00:10:56.336Z,21.60
2018-10-12T00:13:28.185Z,19.93
2018-10-12T00:15:59.320Z,21.03
2018-10-12T00:18:30.795Z,21.63
2018-10-12T00:21:02.267Z,20.53
2018-10-12T00:23:33.458Z,22.30
2018-10-12T00:26:05.609Z,21.37
2018-10-12T00:28:36.952Z,20.67
2018-10-12T00:31:08.335Z,20.07
2018-10-12T00:33:39.269Z,22.20
2018-10-12T00:36:10.495Z,20.83
2018-10-12T00:38:41.845Z,21.60
2018-10-12T00:41:13.237Z,21.43
2018-10-12T00:43:44.650Z,20.20
2018-10-12T00:46:15.895Z,23.20
2018-10-12T00:48:47.120Z,22.43
2018-10-12T00:51:18.472Z,22.93
2018-10-12T00:53:49.543Z,22.73
2018-10-12T00:56:20.785Z,22.47
2018-10-12T00:58:52.017Z,23.30
2018-10-12T01:01:23.301Z,21.93
2018-10-12T01:03:54.628Z,23.10
2018-10-12T01:06:25.789Z,23.20
2018-10-12T01:08:57.176Z,21.90
2018-10-12T01:11:28.624Z,23.47
2018-10-12T01:13:59.887Z,22.93
2018-10-12T01:16:31.148Z,22.10
2018-10-12T01:19:02.248Z,21.57
2018-10-12T01:21:34.007Z,23.67
2018-10-12T01:24:05.786Z,22.77
2018-10-12T01:26:37.149Z,21.57
2018-10-12T01:29:08.194Z,22.57
2018-10-12T01:31:39.532Z,22.33
2018-10-12T01:34:11.119Z,22.77
2018-10-12T01:36:42.325Z,23.30
2018-10-12T01:39:13.709Z,21.70
2018-10-12T01:41:45.177Z,21.87
2018-10-12T01:44:16.598Z,22.47
2018-10-12T01:46:48.101Z,24.80
2018-10-12T01:49:19.359Z,24.30
2018-10-12T01:51:50.831Z,23.70
2018-10-12T01:54:22.190Z,23.00
2018-10-12T01:56:54.021Z,23.67
2018-10-12T01:59:25.602Z,23.60
2018-10-12T02:01:56.844Z,23.33
2018-10-12T02:04:29.079Z,22.93
2018-10-12T02:07:00.765Z,23.00
2018-10-12T02:09:32.117Z,22.27
2018-10-12T02:12:03.573Z,23.90
2018-10-12T02:14:35.029Z,24.20
2018-10-12T02:17:06.180Z,21.90
2018-10-12T02:19:37.400Z,21.53
2018-10-12T02:22:08.689Z,22.63
2018-10-12T02:24:39.824Z,23.27
2018-10-12T02:27:10.965Z,23.57
2018-10-12T02:29:42.650Z,22.63
2018-10-12T02:32:14.569Z,22.53
2018-10-12T02:34:45.947Z,23.73
2018-10-12T02:37:17.056Z,24.17
2018-10-12T02:39:48.313Z,22.90
2018-10-12T02:42:19.573Z,23.83
2018-10-12T02:44:50.894Z,23.17
2018-10-12T02:47:22.675Z,24.13
2018-10-12T02:49:53.699Z,23.17
2018-10-12T02:52:25.090Z,23.40
2018-10-12T02:54:56.283Z,22.73
2018-10-12T02:57:27.663Z,22.17
2018-10-12T02:59:58.769Z,23.13
2018-10-12T03:02:29.972Z,22.73
2018-10-12T03:05:01.362Z,23.77
2018-10-12T03:07:33.053Z,22.67
2018-10-12T03:10:04.349Z,23.73
2018-10-12T03:12:35.832Z,22.83
2018-10-12T03:15:07.070Z,23.13
2018-10-12T03:17:38.344Z,24.70
2018-10-12T03:20:09.633Z,24.30
2018-10-12T03:22:41.120Z,23.43
2018-10-12T03:25:12.560Z,24.20
2018-10-12T03:28:00.175Z,22.80
2018-10-12T03:30:32.080Z,25.67
2018-10-12T03:33:03.547Z,25.70
2018-10-12T03:35:34.812Z,25.10
2018-10-12T03:38:06.299Z,23.37
2018-10-12T03:40:37.696Z,24.63
2018-10-12T03:43:09.220Z,24.43
2018-10-12T03:45:40.549Z,25.17
2018-10-12T03:48:12.114Z,25.03
2018-10-12T03:50:43.568Z,25.43
2018-10-12T03:53:15.321Z,26.47
2018-10-12T03:55:47.036Z,26.90
2018-10-12T03:58:18.338Z,25.77
2018-10-12T04:00:49.445Z,25.57
2018-10-12T04:03:21.341Z,27.07
2018-10-12T04:05:52.758Z,26.37
2018-10-12T04:08:24.038Z,26.63
2018-10-12T04:10:55.061Z,27.47
2018-10-12T04:13:26.636Z,28.13
2018-10-12T04:15:57.866Z,26.40
2018-10-12T04:18:29.241Z,28.30
2018-10-12T04:21:00.533Z,27.77
2018-10-12T04:23:31.814Z,27.37
2018-10-12T04:26:03.086Z,28.43
2018-10-12T04:28:34.432Z,27.53
2018-10-12T04:31:05.574Z,27.30
2018-10-12T04:33:36.549Z,26.13
2018-10-12T04:36:08.025Z,27.40
2018-10-12T04:38:55.650Z,27.87
2018-10-12T04:41:28.010Z,28.77
2018-10-12T04:44:00.657Z,26.37
2018-10-12T04:46:42.149Z,26.47
2018-10-12T04:49:16.729Z,26.63
2018-10-12T04:51:53.148Z,27.63
2018-10-12T04:54:25.004Z,27.93
2018-10-12T04:56:56.527Z,26.93
2018-10-12T04:59:27.873Z,26.47
2018-10-12T05:01:59.208Z,27.47
2018-10-12T05:04:30.655Z,33.23
2018-10-12T05:07:02.040Z,28.97
2018-10-12T05:09:34.197Z,28.30
2018-10-12T05:12:05.507Z,30.13
2018-10-12T05:14:36.977Z,27.07
2018-10-12T05:17:08.890Z,27.97
2018-10-12T05:19:40.186Z,28.13
2018-10-12T05:22:11.467Z,28.47
2018-10-12T05:24:42.718Z,29.90
2018-10-12T05:27:14.076Z,34.03
2018-10-12T05:29:45.431Z,28.60
2018-10-12T05:32:16.593Z,31.70
2018-10-12T05:34:48.060Z,28.83
2018-10-12T05:37:19.599Z,27.97
2018-10-12T05:39:50.755Z,27.87
2018-10-12T05:42:22.076Z,27.97
2018-10-12T05:44:53.548Z,29.20
2018-10-12T05:47:24.860Z,28.23
2018-10-12T05:50:03.908Z,27.70
2018-10-12T05:52:35.765Z,28.90
2018-10-12T05:55:07.460Z,28.03
2018-10-12T05:57:43.087Z,26.37
2018-10-12T06:00:14.669Z,28.03
2018-10-12T06:02:45.988Z,25.83
2018-10-12T06:05:17.241Z,25.53
2018-10-12T06:07:48.404Z,26.00
2018-10-12T06:10:19.910Z,27.30
2018-10-12T06:12:51.226Z,28.70
2018-10-12T06:15:22.580Z,38.27
2018-10-12T06:17:53.985Z,34.50
2018-10-12T06:20:25.470Z,27.67
2018-10-12T06:22:56.773Z,26.70
2018-10-12T06:25:28.462Z,28.37
2018-10-12T06:27:59.722Z,26.50
2018-10-12T06:30:30.927Z,26.33
2018-10-12T06:33:02.392Z,25.93
2018-10-12T06:35:33.766Z,27.70
2018-10-12T06:38:05.037Z,26.40
2018-10-12T06:40:36.178Z,26.90
2018-10-12T06:43:07.940Z,27.57
2018-10-12T06:45:39.393Z,27.03
2018-10-12T06:48:10.819Z,27.80
2018-10-12T06:50:43.715Z,26.47
2018-10-12T06:53:15.109Z,26.53
2018-10-12T06:55:46.352Z,27.33
2018-10-12T06:58:18.584Z,26.53
2018-10-12T07:00:50.101Z,27.73
2018-10-12T07:03:21.920Z,26.27
2018-10-12T07:05:52.768Z,27.60
2018-10-12T07:08:24.246Z,27.10
2018-10-12T07:10:55.774Z,26.63
2018-10-12T07:13:27.025Z,27.97
2018-10-12T07:15:58.428Z,29.43
2018-10-12T07:18:29.720Z,26.67
2018-10-12T07:21:01.264Z,29.80
2018-10-12T07:23:32.796Z,27.00
2018-10-12T07:26:04.392Z,26.63
2018-10-12T07:28:35.598Z,26.13
2018-10-12T07:31:07.645Z,26.67
2018-10-12T07:33:38.929Z,26.23
2018-10-12T07:36:10.206Z,26.65
2018-10-12T07:38:41.999Z,27.75
2018-10-12T07:41:13.156Z,27.15
2018-10-12T07:43:44.574Z,25.72
2018-10-12T07:46:15.913Z,26.55
2018-10-12T07:48:47.101Z,26.90
2018-10-12T07:51:18.605Z,27.20
2018-10-12T07:53:50.113Z,26.97
2018-10-12T07:56:21.433Z,26.00
2018-10-12T07:58:52.625Z,27.62
2018-10-12T08:01:23.961Z,25.50
2018-10-12T08:03:55.252Z,42.33
2018-10-12T08:06:26.639Z,27.27
2018-10-12T08:08:57.721Z,28.00
2018-10-12T08:11:29.010Z,25.92
2018-10-12T08:14:00.228Z,25.60
2018-10-12T08:16:31.784Z,25.77
2018-10-12T08:19:03.134Z,27.00
2018-10-12T08:21:34.167Z,27.17
2018-10-12T08:24:05.558Z,26.68
2018-10-12T08:26:37.212Z,28.32
2018-10-12T08:29:08.517Z,27.40
2018-10-12T08:31:39.805Z,26.77
2018-10-12T08:34:11.120Z,25.62
2018-10-12T08:36:42.538Z,25.43
2018-10-12T08:39:13.961Z,26.50
2018-10-12T08:41:45.432Z,25.12
2018-10-12T08:44:16.853Z,26.17
2018-10-12T08:46:48.112Z,25.68
2018-10-12T08:49:19.396Z,26.62
2018-10-12T08:51:50.859Z,26.50
2018-10-12T08:54:22.295Z,26.42
2018-10-12T08:56:53.575Z,24.70
2018-10-12T08:59:25.072Z,27.20
2018-10-12T09:01:56.461Z,28.83
2018-10-12T09:04:27.445Z,31.00
2018-10-12T09:06:58.839Z,26.15
2018-10-12T09:09:30.155Z,25.75
2018-10-12T09:12:01.425Z,27.98
2018-10-12T09:14:33.387Z,24.87
2018-10-12T09:17:04.852Z,27.75
2018-10-12T09:19:36.144Z,24.10
2018-10-12T09:22:07.611Z,25.88
2018-10-12T09:24:39.157Z,23.83
2018-10-12T09:27:10.580Z,25.02
2018-10-12T09:29:41.862Z,26.02
2018-10-12T09:32:13.458Z,24.27
2018-10-12T09:34:45.719Z,23.85
2018-10-12T09:37:17.099Z,25.32
2018-10-12T09:39:48.365Z,24.20
2018-10-12T09:42:20.060Z,24.98
2018-10-12T09:44:51.863Z,23.77
2018-10-12T09:47:23.389Z,24.07
2018-10-12T09:49:54.414Z,24.37
2018-10-12T09:52:25.572Z,23.67
2018-10-12T09:54:56.894Z,24.18
2018-10-12T09:57:33.145Z,22.35
2018-10-12T10:00:08.631Z,20.95
2018-10-12T10:02:48.743Z,22.00
2018-10-12T10:05:19.935Z,20.20
2018-10-12T10:07:51.524Z,20.37
2018-10-12T10:10:23.204Z,20.80
2018-10-12T10:12:54.741Z,22.55
2018-10-12T10:15:25.806Z,20.50
2018-10-12T10:17:57.060Z,20.52
2018-10-12T10:20:28.305Z,19.42
2018-10-12T10:22:59.760Z,20.12
2018-10-12T10:25:31.469Z,19.15
2018-10-12T10:28:02.746Z,18.82
2018-10-12T10:30:34.172Z,24.77
2018-10-12T10:33:05.741Z,28.92
2018-10-12T10:35:37.126Z,20.57
2018-10-12T10:38:08.856Z,19.27
2018-10-12T10:40:40.167Z,17.98
2018-10-12T10:43:11.522Z,18.60
2018-10-12T10:45:42.868Z,16.02
2018-10-12T10:48:14.444Z,16.35
2018-10-12T10:50:45.887Z,17.17
2018-10-12T10:53:17.292Z,15.43
2018-10-12T10:55:48.873Z,15.75
2018-10-12T10:58:20.166Z,15.20
2018-10-12T11:00:51.686Z,15.05
2018-10-12T11:03:23.080Z,14.25
2018-10-12T11:05:54.691Z,14.40
2018-10-12T11:08:25.985Z,17.82
2018-10-12T11:10:57.426Z,18.10
2018-10-12T11:13:28.680Z,17.37
2018-10-12T11:16:00.001Z,15.15
2018-10-12T11:18:31.367Z,15.98
2018-10-12T11:21:02.580Z,18.77
2018-10-12T11:23:33.772Z,16.87
2018-10-12T11:26:04.921Z,21.20
2018-10-12T11:28:36.503Z,17.40
2018-10-12T11:31:08.297Z,14.47
2018-10-12T11:33:39.485Z,16.93
2018-10-12T11:36:10.681Z,16.65
2018-10-12T11:38:41.865Z,18.85
2018-10-12T11:41:13.377Z,21.25
2018-10-12T11:43:44.839Z,18.15
2018-10-12T11:46:16.687Z,15.98
2018-10-12T11:48:47.970Z,15.13
2018-10-12T11:51:19.490Z,14.18
2018-10-12T11:53:51.054Z,15.15
2018-10-12T11:56:22.425Z,17.07
2018-10-12T11:58:53.670Z,16.40
2018-10-12T12:01:24.807Z,16.48
2018-10-12T12:03:56.421Z,17.35
2018-10-12T12:06:27.921Z,15.70
2018-10-12T12:08:59.120Z,15.08
2018-10-12T12:11:30.396Z,14.95
2018-10-12T12:14:01.811Z,19.82
2018-10-12T12:16:32.940Z,31.80
2018-10-12T12:19:04.412Z,23.83
2018-10-12T12:21:36.156Z,16.77
2018-10-12T12:24:07.807Z,15.90
2018-10-12T12:26:39.092Z,22.35
2018-10-12T12:29:10.615Z,23.20
2018-10-12T12:31:42.063Z,15.68
2018-10-12T12:34:13.253Z,15.03
2018-10-12T12:36:44.751Z,15.63
2018-10-12T12:39:16.068Z,17.87
2018-10-12T12:41:47.411Z,18.17
2018-10-12T12:44:18.720Z,16.77
2018-10-12T12:46:50.127Z,16.48
2018-10-12T12:49:21.812Z,15.30
2018-10-12T12:51:52.985Z,16.00
2018-10-12T12:54:24.272Z,13.73
2018-10-12T12:56:55.921Z,13.77
2018-10-12T12:59:27.833Z,20.47
2018-10-12T13:01:58.896Z,20.63
2018-10-12T13:04:30.122Z,15.10
2018-10-12T13:07:01.564Z,14.23
2018-10-12T13:09:32.769Z,13.03
2018-10-12T13:12:04.153Z,12.75
2018-10-12T13:14:35.737Z,13.18
2018-10-12T13:17:07.244Z,13.93
2018-10-12T13:19:38.714Z,14.40
2018-10-12T13:22:10.004Z,14.97
2018-10-12T13:24:41.542Z,14.03
2018-10-12T13:27:13.069Z,13.57
2018-10-12T13:29:44.848Z,13.33
2018-10-12T13:32:16.156Z,12.90
2018-10-12T13:34:47.874Z,13.60
2018-10-12T13:37:19.261Z,13.67
2018-10-12T13:39:50.560Z,13.98
2018-10-12T13:42:21.958Z,13.67
2018-10-12T13:44:53.292Z,14.00
2018-10-12T13:47:24.699Z,14.53
2018-10-12T13:49:56.008Z,13.30
2018-10-12T13:52:27.458Z,13.50
2018-10-12T13:54:58.869Z,13.53
2018-10-12T13:57:30.201Z,14.20
2018-10-12T14:00:01.505Z,14.17
2018-10-12T14:02:32.977Z,13.87
2018-10-12T14:05:04.461Z,14.20
2018-10-12T14:07:35.815Z,14.70
2018-10-12T14:10:07.359Z,13.13
2018-10-12T14:12:38.611Z,15.33
2018-10-12T14:15:09.836Z,14.67
2018-10-12T14:17:41.078Z,13.67
2018-10-12T14:20:12.304Z,13.43
2018-10-12T14:22:43.688Z,13.10
2018-10-12T14:25:14.991Z,13.03
2018-10-12T14:27:46.540Z,13.37
2018-10-12T14:30:18.165Z,13.07
2018-10-12T14:32:49.484Z,13.27
2018-10-12T14:35:20.903Z,12.80
2018-10-12T14:37:52.245Z,13.60
2018-10-12T14:40:23.556Z,13.27
2018-10-12T14:42:54.912Z,13.33
2018-10-12T14:45:26.421Z,13.07
2018-10-12T14:47:58.032Z,13.00
2018-10-12T14:50:29.519Z,12.53
2018-10-12T14:53:00.678Z,11.63
2018-10-12T14:55:32.280Z,12.23
2018-10-12T14:58:03.719Z,12.73
2018-10-12T15:00:34.918Z,13.47
2018-10-12T15:03:06.440Z,12.88
2018-10-12T15:05:37.651Z,12.40
2018-10-12T15:08:08.934Z,12.60
2018-10-12T15:10:40.396Z,12.53
2018-10-12T15:13:11.628Z,12.70
2018-10-12T15:15:43.628Z,12.37
2018-10-12T15:18:14.973Z,13.27
2018-10-12T15:20:46.386Z,12.60
2018-10-12T15:23:18.050Z,12.53
2018-10-12T15:25:49.196Z,14.40
2018-10-12T15:28:20.388Z,12.47
2018-10-12T15:30:51.778Z,13.00
2018-10-12T15:33:23.169Z,12.20
2018-10-12T15:35:54.550Z,12.50
2018-10-12T15:38:25.755Z,13.40
2018-10-12T15:40:57.624Z,13.35
2018-10-12T15:43:29.209Z,13.03
2018-10-12T15:46:00.524Z,14.27
2018-10-12T15:48:32.152Z,25.40
2018-10-12T15:51:03.860Z,26.40
2018-10-12T15:53:35.192Z,15.07
2018-10-12T15:56:06.470Z,15.20
2018-10-12T15:58:37.848Z,19.27
2018-10-12T16:01:09.224Z,17.00
2018-10-12T16:03:40.856Z,17.03
2018-10-12T16:06:12.309Z,15.27
2018-10-12T16:08:43.836Z,16.17
2018-10-12T16:11:14.884Z,16.40
2018-10-12T16:13:46.480Z,14.47
2018-10-12T16:16:18.025Z,14.83
2018-10-12T16:18:49.662Z,14.80
2018-10-12T16:21:20.965Z,18.20
2018-10-12T16:23:52.796Z,17.30
2018-10-12T16:26:24.849Z,18.17
2018-10-12T16:28:56.386Z,16.83
2018-10-12T16:31:27.647Z,15.90
2018-10-12T16:33:59.100Z,18.43
2018-10-12T16:36:30.651Z,17.43
2018-10-12T16:39:02.109Z,18.07
2018-10-12T16:41:33.790Z,17.20
2018-10-12T16:44:05.469Z,17.53
2018-10-12T16:46:36.673Z,19.13
2018-10-12T16:49:08.243Z,20.03
2018-10-12T16:51:39.721Z,20.00
2018-10-12T16:54:11.179Z,19.33
2018-10-12T16:56:42.628Z,20.50
2018-10-12T16:59:14.105Z,19.87
2018-10-12T17:01:45.726Z,20.80
2018-10-12T17:04:17.088Z,20.37
2018-10-12T17:06:48.593Z,20.17
2018-10-12T17:09:19.860Z,19.30
2018-10-12T17:11:51.380Z,19.33
2018-10-12T17:14:23.772Z,18.67
2018-10-12T17:16:55.231Z,21.77
2018-10-12T17:19:26.635Z,21.13
2018-10-12T17:21:58.272Z,18.80
2018-10-12T17:24:29.762Z,19.67
2018-10-12T17:27:01.019Z,24.37
2018-10-12T17:29:32.595Z,20.27
2018-10-12T17:32:04.095Z,19.57
2018-10-12T17:34:35.532Z,18.63
2018-10-12T17:37:06.902Z,18.43
2018-10-12T17:39:38.221Z,19.27
2018-10-12T17:42:16.616Z,20.77
2018-10-12T17:44:48.251Z,26.33
2018-10-12T17:47:21.323Z,23.57
2018-10-12T17:49:53.175Z,19.87
2018-10-12T17:52:24.750Z,19.33
2018-10-12T17:54:56.300Z,19.43
2018-10-12T17:57:28.541Z,18.77
2018-10-12T17:59:59.965Z,19.90
2018-10-12T18:02:31.234Z,19.83
2018-10-12T18:05:02.497Z,18.30
2018-10-12T18:07:34.246Z,17.80
2018-10-12T18:10:06.036Z,18.37
2018-10-12T18:12:37.506Z,18.90
2018-10-12T18:15:11.906Z,18.57
2018-10-12T18:17:43.389Z,18.73
2018-10-12T18:20:14.802Z,27.83
2018-10-12T18:22:46.085Z,24.53
2018-10-12T18:25:17.755Z,19.93
2018-10-12T18:27:49.039Z,20.00
2018-10-12T18:30:20.713Z,20.30
2018-10-12T18:32:52.200Z,20.07
2018-10-12T18:35:23.666Z,21.93
2018-10-12T18:37:55.061Z,20.93
2018-10-12T18:40:26.462Z,21.70
2018-10-12T18:42:57.907Z,21.83
2018-10-12T18:45:29.307Z,20.07
2018-10-12T18:48:00.900Z,19.93
2018-10-12T18:50:32.310Z,20.40
2018-10-12T18:53:03.729Z,18.87
2018-10-12T18:55:35.105Z,19.67
2018-10-12T18:58:06.562Z,19.70
2018-10-12T19:00:38.020Z,18.63
2018-10-12T19:03:09.376Z,19.37
2018-10-12T19:05:41.817Z,19.73
2018-10-12T19:08:13.157Z,19.60
2018-10-12T19:10:44.857Z,19.80
2018-10-12T19:13:16.417Z,19.17
2018-10-12T19:15:47.824Z,20.13
2018-10-12T19:18:19.390Z,19.63
2018-10-12T19:20:51.111Z,18.93
2018-10-12T19:23:22.698Z,20.47
2018-10-12T19:25:54.134Z,18.57
2018-10-12T19:28:25.754Z,20.10
2018-10-12T19:30:57.107Z,20.40
2018-10-12T19:33:28.631Z,21.03
2018-10-12T19:36:00.037Z,22.87
2018-10-12T19:38:31.285Z,18.93
2018-10-12T19:41:02.606Z,19.67
2018-10-12T19:43:33.930Z,18.57
2018-10-12T19:46:05.519Z,18.77
2018-10-12T19:48:36.770Z,21.30
2018-10-12T19:51:08.444Z,19.57
2018-10-12T19:53:39.838Z,21.13
2018-10-12T19:56:11.419Z,21.07
2018-10-12T19:58:42.971Z,22.27
2018-10-12T20:01:14.281Z,19.73
2018-10-12T20:03:45.707Z,20.47
2018-10-12T20:06:17.334Z,19.27
2018-10-12T20:08:49.118Z,19.53
2018-10-12T20:11:20.536Z,19.53
2018-10-12T20:13:51.841Z,18.97
2018-10-12T20:16:23.468Z,18.87
2018-10-12T20:18:54.765Z,19.23
2018-10-12T20:21:26.446Z,20.90
2018-10-12T20:23:57.979Z,20.03
2018-10-12T20:26:29.192Z,19.13
2018-10-12T20:29:00.964Z,17.37
2018-10-12T20:31:32.684Z,18.80
2018-10-12T20:34:04.191Z,18.03
2018-10-12T20:36:35.648Z,18.70
2018-10-12T20:39:10.376Z,19.57
2018-10-12T20:41:41.736Z,24.40
2018-10-12T20:44:13.513Z,20.00
2018-10-12T20:46:44.987Z,19.43
2018-10-12T20:49:16.384Z,18.03
2018-10-12T20:51:47.584Z,18.03
2018-10-12T20:54:18.902Z,18.13
2018-10-12T20:56:50.527Z,19.23
2018-10-12T20:59:22.271Z,18.47
2018-10-12T21:01:53.571Z,19.27
2018-10-12T21:04:24.948Z,18.40
2018-10-12T21:06:56.365Z,18.77
2018-10-12T21:09:27.598Z,19.13
2018-10-12T21:11:59.140Z,18.50
2018-10-12T21:14:30.593Z,18.53
2018-10-12T21:17:01.987Z,18.47
2018-10-12T21:19:33.335Z,18.33
2018-10-12T21:22:04.833Z,17.47
2018-10-12T21:24:36.135Z,18.27
2018-10-12T21:27:07.609Z,18.80
2018-10-12T21:29:39.302Z,19.00
2018-10-12T21:32:10.533Z,19.13
2018-10-12T21:34:41.843Z,18.53
2018-10-12T21:37:13.438Z,17.47
2018-10-12T21:39:45.164Z,18.93
2018-10-12T21:42:16.648Z,39.13
2018-10-12T21:44:48.228Z,24.27
2018-10-12T21:47:19.342Z,19.00
2018-10-12T21:49:50.887Z,34.20
2018-10-12T21:52:22.312Z,27.80
2018-10-12T21:54:53.734Z,23.67
2018-10-12T21:57:25.138Z,18.43
2018-10-12T21:59:56.609Z,18.97
2018-10-12T22:02:28.569Z,17.77
2018-10-12T22:05:00.026Z,17.97
2018-10-12T22:07:32.507Z,18.90
2018-10-12T22:10:03.939Z,18.43
2018-10-12T22:12:35.298Z,17.93
2018-10-12T22:15:06.576Z,18.33
2018-10-12T22:17:38.180Z,19.33
2018-10-12T22:20:09.445Z,18.40
2018-10-12T22:22:40.714Z,20.10
2018-10-12T22:25:12.102Z,19.30
2018-10-12T22:27:43.789Z,18.70
2018-10-12T22:30:15.370Z,18.53
2018-10-12T22:32:46.572Z,18.63
2018-10-12T22:35:17.785Z,20.30
2018-10-12T22:37:49.133Z,18.53
2018-10-12T22:40:21.452Z,19.60
2018-10-12T22:42:55.341Z,19.33
2018-10-12T22:45:26.862Z,19.50
2018-10-12T22:47:58.142Z,18.53
2018-10-12T22:50:29.599Z,19.50
2018-10-12T22:53:01.096Z,20.47
2018-10-12T22:55:32.605Z,20.47
2018-10-12T22:58:04.102Z,19.73
2018-10-12T23:00:35.571Z,19.33
2018-10-12T23:03:07.023Z,19.67
2018-10-12T23:05:38.410Z,19.17
2018-10-12T23:08:09.556Z,18.87
2018-10-12T23:10:41.122Z,18.90
2018-10-12T23:13:12.965Z,19.33
2018-10-12T23:15:44.330Z,19.77
2018-10-12T23:18:15.540Z,19.70
2018-10-12T23:20:46.697Z,18.77
2018-10-12T23:23:18.237Z,18.83
2018-10-12T23:25:49.697Z,20.43
2018-10-12T23:28:20.977Z,19.43
2018-10-12T23:30:52.326Z,18.80
2018-10-12T23:33:39.557Z,20.43
2018-10-12T23:36:10.904Z,19.80
2018-10-12T23:38:42.368Z,19.37
2018-10-12T23:41:13.552Z,20.47
2018-10-12T23:43:44.781Z,21.20
2018-10-12T23:46:16.061Z,21.33
2018-10-12T23:48:47.300Z,20.37
2018-10-12T23:51:18.768Z,22.03
2018-10-12T23:53:50.157Z,22.37
2018-10-12T23:56:21.352Z,22.23
2018-10-12T23:58:52.776Z,24.73
